sensor_id;sensor_type;location;lat;lon;timestamp;P1;durP1;ratioP1;P2;durP2;ratioP2
26512;SDS011;14186;53.822;10.152;2022-12-11T00:02:49;14.82;;;6.20;;
26512;SDS011;14186;53.822;10.152;2022-12-11T00:07:50;16.80;;;7.50;;
26512;SDS011;14186;53.822;10.152;2022-12-11T00:12:50;15.40;;;7.18;;
26512;SDS011;14186;53.822;10.152;2022-12-11T00:17:51;14.02;;;6.35;;
26512;SDS011;14186;53.822;10.152;2022-12-11T00:22:51;14.52;;;6.18;;
26512;SDS011;14186;53.822;10.152;2022-12-11T00:27:52;14.00;;;6.30;;
26512;SDS011;14186;53.822;10.152;2022-12-11T00:32:53;15.18;;;6.13;;
26512;SDS011;14186;53.822;10.152;2022-12-11T00:37:53;16.75;;;7.32;;
26512;SDS011;14186;53.822;10.152;2022-12-11T00:42:53;13.45;;;5.95;;
26512;SDS011;14186;53.822;10.152;2022-12-11T00:47:55;15.45;;;6.88;;
26512;SDS011;14186;53.822;10.152;2022-12-11T00:52:55;15.65;;;6.63;;
26512;SDS011;14186;53.822;10.152;2022-12-11T00:57:56;14.57;;;6.32;;
26512;SDS011;14186;53.822;10.152;2022-12-11T01:02:57;15.75;;;6.65;;
26512;SDS011;14186;53.822;10.152;2022-12-11T01:07:58;15.98;;;6.55;;
26512;SDS011;14186;53.822;10.152;2022-12-11T01:12:59;17.90;;;6.90;;
26512;SDS011;14186;53.822;10.152;2022-12-11T01:18:01;16.63;;;7.38;;
26512;SDS011;14186;53.822;10.152;2022-12-11T01:23:01;15.20;;;6.90;;
26512;SDS011;14186;53.822;10.152;2022-12-11T01:28:01;12.75;;;6.20;;
26512;SDS011;14186;53.822;10.152;2022-12-11T01:33:03;14.73;;;6.80;;
26512;SDS011;14186;53.822;10.152;2022-12-11T01:38:03;16.25;;;6.88;;
26512;SDS011;14186;53.822;10.152;2022-12-11T01:43:03;14.73;;;6.38;;
26512;SDS011;14186;53.822;10.152;2022-12-11T01:48:06;15.02;;;6.28;;
26512;SDS011;14186;53.822;10.152;2022-12-11T01:53:08;12.68;;;6.55;;
26512;SDS011;14186;53.822;10.152;2022-12-11T01:58:09;14.20;;;6.88;;
26512;SDS011;14186;53.822;10.152;2022-12-11T02:03:11;16.73;;;7.63;;
26512;SDS011;14186;53.822;10.152;2022-12-11T02:08:12;14.75;;;6.38;;
26512;SDS011;14186;53.822;10.152;2022-12-11T02:13:13;13.02;;;6.05;;
26512;SDS011;14186;53.822;10.152;2022-12-11T02:18:15;17.58;;;6.88;;
26512;SDS011;14186;53.822;10.152;2022-12-11T02:23:21;17.45;;;6.90;;
26512;SDS011;14186;53.822;10.152;2022-12-11T02:28:28;16.70;;;6.70;;
26512;SDS011;14186;53.822;10.152;2022-12-11T02:33:31;16.08;;;7.25;;
26512;SDS011;14186;53.822;10.152;2022-12-11T02:38:33;15.85;;;6.53;;
26512;SDS011;14186;53.822;10.152;2022-12-11T02:43:36;14.45;;;6.32;;
26512;SDS011;14186;53.822;10.152;2022-12-11T02:48:36;13.52;;;6.10;;
26512;SDS011;14186;53.822;10.152;2022-12-11T02:53:38;11.57;;;6.10;;
26512;SDS011;14186;53.822;10.152;2022-12-11T02:58:44;15.45;;;6.03;;
26512;SDS011;14186;53.822;10.152;2022-12-11T03:03:45;15.27;;;6.75;;
26512;SDS011;14186;53.822;10.152;2022-12-11T03:08:45;15.77;;;6.72;;
26512;SDS011;14186;53.822;10.152;2022-12-11T03:13:47;14.85;;;6.55;;
26512;SDS011;14186;53.822;10.152;2022-12-11T03:18:48;15.07;;;6.82;;
26512;SDS011;14186;53.822;10.152;2022-12-11T03:23:51;17.75;;;7.80;;
26512;SDS011;14186;53.822;10.152;2022-12-11T03:28:55;14.88;;;6.22;;
26512;SDS011;14186;53.822;10.152;2022-12-11T03:33:58;17.77;;;7.15;;
26512;SDS011;14186;53.822;10.152;2022-12-11T03:39:00;15.98;;;6.68;;
26512;SDS011;14186;53.822;10.152;2022-12-11T03:44:02;14.45;;;6.72;;
26512;SDS011;14186;53.822;10.152;2022-12-11T03:49:04;16.15;;;6.95;;
26512;SDS011;14186;53.822;10.152;2022-12-11T03:54:06;15.95;;;6.28;;
26512;SDS011;14186;53.822;10.152;2022-12-11T03:59:08;14.60;;;6.75;;
26512;SDS011;14186;53.822;10.152;2022-12-11T04:04:08;17.85;;;7.15;;
26512;SDS011;14186;53.822;10.152;2022-12-11T04:09:08;15.85;;;8.05;;
26512;SDS011;14186;53.822;10.152;2022-12-11T04:14:10;16.48;;;7.15;;
26512;SDS011;14186;53.822;10.152;2022-12-11T04:19:11;12.88;;;6.72;;
26512;SDS011;14186;53.822;10.152;2022-12-11T04:24:11;18.13;;;7.72;;
26512;SDS011;14186;53.822;10.152;2022-12-11T04:29:13;17.55;;;8.00;;
26512;SDS011;14186;53.822;10.152;2022-12-11T04:34:13;19.20;;;8.10;;
26512;SDS011;14186;53.822;10.152;2022-12-11T04:39:14;19.13;;;8.48;;
26512;SDS011;14186;53.822;10.152;2022-12-11T04:44:15;17.08;;;6.75;;
26512;SDS011;14186;53.822;10.152;2022-12-11T04:49:15;19.33;;;7.55;;
26512;SDS011;14186;53.822;10.152;2022-12-11T04:54:15;18.50;;;7.47;;
26512;SDS011;14186;53.822;10.152;2022-12-11T04:59:17;22.83;;;8.73;;
26512;SDS011;14186;53.822;10.152;2022-12-11T05:04:17;35.03;;;13.68;;
26512;SDS011;14186;53.822;10.152;2022-12-11T05:09:17;50.58;;;18.40;;
26512;SDS011;14186;53.822;10.152;2022-12-11T05:14:19;32.00;;;13.15;;
26512;SDS011;14186;53.822;10.152;2022-12-11T05:19:19;35.15;;;13.98;;
26512;SDS011;14186;53.822;10.152;2022-12-11T05:24:20;36.97;;;14.57;;
26512;SDS011;14186;53.822;10.152;2022-12-11T05:29:21;35.35;;;12.25;;
26512;SDS011;14186;53.822;10.152;2022-12-11T05:34:21;30.52;;;11.85;;
26512;SDS011;14186;53.822;10.152;2022-12-11T05:39:22;30.83;;;12.50;;
26512;SDS011;14186;53.822;10.152;2022-12-11T05:44:23;29.30;;;11.63;;
26512;SDS011;14186;53.822;10.152;2022-12-11T05:49:23;31.98;;;11.48;;
26512;SDS011;14186;53.822;10.152;2022-12-11T05:54:24;27.60;;;10.43;;
26512;SDS011;14186;53.822;10.152;2022-12-11T05:59:25;32.90;;;11.57;;
26512;SDS011;14186;53.822;10.152;2022-12-11T06:04:25;27.60;;;11.10;;
26512;SDS011;14186;53.822;10.152;2022-12-11T06:09:25;28.75;;;11.55;;
26512;SDS011;14186;53.822;10.152;2022-12-11T06:14:27;32.65;;;12.68;;
26512;SDS011;14186;53.822;10.152;2022-12-11T06:19:27;29.65;;;12.35;;
26512;SDS011;14186;53.822;10.152;2022-12-11T06:24:27;30.02;;;11.52;;
26512;SDS011;14186;53.822;10.152;2022-12-11T06:29:29;29.90;;;10.13;;
26512;SDS011;14186;53.822;10.152;2022-12-11T06:34:29;26.42;;;10.13;;
26512;SDS011;14186;53.822;10.152;2022-12-11T06:39:29;23.50;;;9.77;;
26512;SDS011;14186;53.822;10.152;2022-12-11T06:44:31;25.05;;;9.77;;
26512;SDS011;14186;53.822;10.152;2022-12-11T06:49:31;25.70;;;10.70;;
26512;SDS011;14186;53.822;10.152;2022-12-11T06:54:31;22.58;;;9.98;;
26512;SDS011;14186;53.822;10.152;2022-12-11T06:59:33;26.00;;;9.75;;
26512;SDS011;14186;53.822;10.152;2022-12-11T07:04:33;30.55;;;10.93;;
26512;SDS011;14186;53.822;10.152;2022-12-11T07:09:35;27.27;;;9.18;;
26512;SDS011;14186;53.822;10.152;2022-12-11T07:14:37;23.20;;;9.20;;
26512;SDS011;14186;53.822;10.152;2022-12-11T07:19:37;23.75;;;9.85;;
26512;SDS011;14186;53.822;10.152;2022-12-11T07:24:37;23.23;;;9.20;;
26512;SDS011;14186;53.822;10.152;2022-12-11T07:29:39;29.23;;;9.82;;
26512;SDS011;14186;53.822;10.152;2022-12-11T07:34:39;27.33;;;10.75;;
26512;SDS011;14186;53.822;10.152;2022-12-11T07:39:39;32.06;;;11.20;;
26512;SDS011;14186;53.822;10.152;2022-12-11T07:44:41;29.10;;;11.80;;
26512;SDS011;14186;53.822;10.152;2022-12-11T07:49:41;33.55;;;12.50;;
26512;SDS011;14186;53.822;10.152;2022-12-11T07:54:41;33.90;;;13.18;;
26512;SDS011;14186;53.822;10.152;2022-12-11T07:59:43;31.58;;;13.23;;
26512;SDS011;14186;53.822;10.152;2022-12-11T08:04:43;37.42;;;12.52;;
26512;SDS011;14186;53.822;10.152;2022-12-11T08:09:43;35.60;;;13.57;;
26512;SDS011;14186;53.822;10.152;2022-12-11T08:14:45;33.83;;;12.15;;
26512;SDS011;14186;53.822;10.152;2022-12-11T08:19:45;37.53;;;12.88;;
26512;SDS011;14186;53.822;10.152;2022-12-11T08:24:45;37.78;;;13.77;;
26512;SDS011;14186;53.822;10.152;2022-12-11T08:29:47;35.70;;;14.05;;
26512;SDS011;14186;53.822;10.152;2022-12-11T08:34:47;30.27;;;14.30;;
26512;SDS011;14186;53.822;10.152;2022-12-11T08:39:49;32.35;;;14.00;;
26512;SDS011;14186;53.822;10.152;2022-12-11T08:44:51;31.65;;;13.27;;
26512;SDS011;14186;53.822;10.152;2022-12-11T08:49:51;31.63;;;12.63;;
26512;SDS011;14186;53.822;10.152;2022-12-11T08:54:51;33.20;;;12.52;;
26512;SDS011;14186;53.822;10.152;2022-12-11T08:59:53;29.83;;;12.82;;
26512;SDS011;14186;53.822;10.152;2022-12-11T09:04:53;31.80;;;12.20;;
26512;SDS011;14186;53.822;10.152;2022-12-11T09:09:53;34.45;;;13.63;;
26512;SDS011;14186;53.822;10.152;2022-12-11T09:14:55;33.08;;;14.95;;
26512;SDS011;14186;53.822;10.152;2022-12-11T09:19:55;37.33;;;15.27;;
26512;SDS011;14186;53.822;10.152;2022-12-11T09:24:55;37.88;;;15.82;;
26512;SDS011;14186;53.822;10.152;2022-12-11T09:29:57;42.72;;;17.50;;
26512;SDS011;14186;53.822;10.152;2022-12-11T09:34:57;39.92;;;16.88;;
26512;SDS011;14186;53.822;10.152;2022-12-11T09:39:57;36.70;;;13.68;;
26512;SDS011;14186;53.822;10.152;2022-12-11T09:44:59;27.45;;;12.55;;
26512;SDS011;14186;53.822;10.152;2022-12-11T09:50:02;33.00;;;13.70;;
26512;SDS011;14186;53.822;10.152;2022-12-11T09:55:08;28.00;;;12.02;;
26512;SDS011;14186;53.822;10.152;2022-12-11T10:00:15;30.55;;;12.80;;
26512;SDS011;14186;53.822;10.152;2022-12-11T10:05:18;29.70;;;13.48;;
26512;SDS011;14186;53.822;10.152;2022-12-11T10:10:21;28.23;;;12.93;;
26512;SDS011;14186;53.822;10.152;2022-12-11T10:15:30;30.38;;;12.90;;
26512;SDS011;14186;53.822;10.152;2022-12-11T10:20:31;29.65;;;12.77;;
26512;SDS011;14186;53.822;10.152;2022-12-11T10:25:33;24.63;;;11.63;;
26512;SDS011;14186;53.822;10.152;2022-12-11T10:30:36;28.17;;;12.25;;
26512;SDS011;14186;53.822;10.152;2022-12-11T10:35:38;24.45;;;11.35;;
26512;SDS011;14186;53.822;10.152;2022-12-11T10:40:39;23.23;;;10.18;;
26512;SDS011;14186;53.822;10.152;2022-12-11T10:45:50;27.67;;;11.35;;
26512;SDS011;14186;53.822;10.152;2022-12-11T10:50:55;26.73;;;11.18;;
26512;SDS011;14186;53.822;10.152;2022-12-11T10:55:55;24.77;;;10.85;;
26512;SDS011;14186;53.822;10.152;2022-12-11T11:01:02;23.73;;;10.50;;
26512;SDS011;14186;53.822;10.152;2022-12-11T11:06:04;21.75;;;10.57;;
26512;SDS011;14186;53.822;10.152;2022-12-11T11:11:05;24.50;;;10.27;;
26512;SDS011;14186;53.822;10.152;2022-12-11T11:16:10;22.02;;;10.15;;
26512;SDS011;14186;53.822;10.152;2022-12-11T11:21:14;19.80;;;10.93;;
26512;SDS011;14186;53.822;10.152;2022-12-11T11:26:15;26.50;;;11.02;;
26512;SDS011;14186;53.822;10.152;2022-12-11T11:31:17;22.50;;;9.50;;
26512;SDS011;14186;53.822;10.152;2022-12-11T11:36:20;24.15;;;9.32;;
26512;SDS011;14186;53.822;10.152;2022-12-11T11:41:22;19.65;;;9.35;;
26512;SDS011;14186;53.822;10.152;2022-12-11T11:46:26;21.40;;;9.45;;
26512;SDS011;14186;53.822;10.152;2022-12-11T11:51:29;21.83;;;9.57;;
26512;SDS011;14186;53.822;10.152;2022-12-11T11:56:31;23.27;;;9.38;;
26512;SDS011;14186;53.822;10.152;2022-12-11T12:01:33;22.92;;;9.48;;
26512;SDS011;14186;53.822;10.152;2022-12-11T12:06:38;19.80;;;8.43;;
26512;SDS011;14186;53.822;10.152;2022-12-11T12:11:41;16.77;;;7.88;;
26512;SDS011;14186;53.822;10.152;2022-12-11T12:16:50;19.48;;;8.05;;
26512;SDS011;14186;53.822;10.152;2022-12-11T12:21:53;17.95;;;8.82;;
26512;SDS011;14186;53.822;10.152;2022-12-11T12:26:54;18.02;;;8.13;;
26512;SDS011;14186;53.822;10.152;2022-12-11T12:32:02;19.92;;;9.30;;
26512;SDS011;14186;53.822;10.152;2022-12-11T12:37:05;21.13;;;9.07;;
26512;SDS011;14186;53.822;10.152;2022-12-11T12:42:10;20.27;;;8.70;;
26512;SDS011;14186;53.822;10.152;2022-12-11T12:47:17;22.05;;;8.57;;
26512;SDS011;14186;53.822;10.152;2022-12-11T12:52:18;20.63;;;9.30;;
26512;SDS011;14186;53.822;10.152;2022-12-11T12:57:20;19.33;;;10.25;;
26512;SDS011;14186;53.822;10.152;2022-12-11T13:02:22;23.00;;;9.40;;
26512;SDS011;14186;53.822;10.152;2022-12-11T13:07:24;20.35;;;8.48;;
26512;SDS011;14186;53.822;10.152;2022-12-11T13:12:32;20.83;;;9.70;;
26512;SDS011;14186;53.822;10.152;2022-12-11T13:17:40;19.88;;;9.18;;
26512;SDS011;14186;53.822;10.152;2022-12-11T13:22:47;22.55;;;9.02;;
26512;SDS011;14186;53.822;10.152;2022-12-11T13:27:48;24.17;;;10.43;;
26512;SDS011;14186;53.822;10.152;2022-12-11T13:32:51;20.48;;;10.05;;
26512;SDS011;14186;53.822;10.152;2022-12-11T13:42:54;21.20;;;9.10;;
26512;SDS011;14186;53.822;10.152;2022-12-11T13:47:57;20.48;;;8.88;;
26512;SDS011;14186;53.822;10.152;2022-12-11T13:52:58;22.60;;;9.05;;
26512;SDS011;14186;53.822;10.152;2022-12-11T13:57:58;23.08;;;9.43;;
26512;SDS011;14186;53.822;10.152;2022-12-11T14:03:00;25.10;;;10.10;;
26512;SDS011;14186;53.822;10.152;2022-12-11T14:08:04;25.40;;;10.00;;
26512;SDS011;14186;53.822;10.152;2022-12-11T14:13:06;25.00;;;10.25;;
26512;SDS011;14186;53.822;10.152;2022-12-11T14:18:14;22.38;;;9.55;;
26512;SDS011;14186;53.822;10.152;2022-12-11T14:23:17;26.83;;;11.53;;
26512;SDS011;14186;53.822;10.152;2022-12-11T14:28:17;22.48;;;10.02;;
26512;SDS011;14186;53.822;10.152;2022-12-11T14:33:19;24.95;;;11.55;;
26512;SDS011;14186;53.822;10.152;2022-12-11T14:38:20;26.92;;;12.18;;
26512;SDS011;14186;53.822;10.152;2022-12-11T14:43:22;24.17;;;10.73;;
26512;SDS011;14186;53.822;10.152;2022-12-11T14:48:27;28.58;;;14.25;;
26512;SDS011;14186;53.822;10.152;2022-12-11T14:53:30;26.25;;;12.23;;
26512;SDS011;14186;53.822;10.152;2022-12-11T14:58:32;29.73;;;13.65;;
26512;SDS011;14186;53.822;10.152;2022-12-11T15:03:38;33.03;;;13.23;;
26512;SDS011;14186;53.822;10.152;2022-12-11T15:08:39;29.63;;;13.32;;
26512;SDS011;14186;53.822;10.152;2022-12-11T15:13:50;28.70;;;12.70;;
26512;SDS011;14186;53.822;10.152;2022-12-11T15:18:52;30.15;;;13.70;;
26512;SDS011;14186;53.822;10.152;2022-12-11T15:23:54;27.98;;;13.20;;
26512;SDS011;14186;53.822;10.152;2022-12-11T15:28:58;30.13;;;14.77;;
26512;SDS011;14186;53.822;10.152;2022-12-11T15:34:00;28.85;;;13.55;;
26512;SDS011;14186;53.822;10.152;2022-12-11T15:39:00;28.50;;;12.80;;
26512;SDS011;14186;53.822;10.152;2022-12-11T15:44:01;29.80;;;12.05;;
26512;SDS011;14186;53.822;10.152;2022-12-11T15:49:07;28.30;;;12.85;;
26512;SDS011;14186;53.822;10.152;2022-12-11T15:54:08;32.85;;;15.45;;
26512;SDS011;14186;53.822;10.152;2022-12-11T15:59:08;33.15;;;14.45;;
26512;SDS011;14186;53.822;10.152;2022-12-11T16:04:10;33.90;;;15.02;;
26512;SDS011;14186;53.822;10.152;2022-12-11T16:09:10;38.15;;;15.15;;
26512;SDS011;14186;53.822;10.152;2022-12-11T16:14:10;43.75;;;19.38;;
26512;SDS011;14186;53.822;10.152;2022-12-11T16:19:12;42.15;;;17.85;;
26512;SDS011;14186;53.822;10.152;2022-12-11T16:24:12;52.97;;;20.95;;
26512;SDS011;14186;53.822;10.152;2022-12-11T16:29:12;51.25;;;22.45;;
26512;SDS011;14186;53.822;10.152;2022-12-11T16:34:14;44.83;;;20.73;;
26512;SDS011;14186;53.822;10.152;2022-12-11T16:39:14;45.13;;;18.90;;
26512;SDS011;14186;53.822;10.152;2022-12-11T16:44:16;42.63;;;18.90;;
26512;SDS011;14186;53.822;10.152;2022-12-11T16:49:19;51.15;;;20.40;;
26512;SDS011;14186;53.822;10.152;2022-12-11T16:54:19;40.22;;;17.10;;
26512;SDS011;14186;53.822;10.152;2022-12-11T16:59:19;33.85;;;15.20;;
26512;SDS011;14186;53.822;10.152;2022-12-11T17:04:21;35.17;;;16.85;;
26512;SDS011;14186;53.822;10.152;2022-12-11T17:09:21;45.97;;;20.63;;
26512;SDS011;14186;53.822;10.152;2022-12-11T17:14:21;50.70;;;21.40;;
26512;SDS011;14186;53.822;10.152;2022-12-11T17:19:23;43.15;;;19.95;;
26512;SDS011;14186;53.822;10.152;2022-12-11T17:24:23;38.22;;;17.15;;
26512;SDS011;14186;53.822;10.152;2022-12-11T17:29:23;37.30;;;17.52;;
26512;SDS011;14186;53.822;10.152;2022-12-11T17:34:25;43.97;;;17.38;;
26512;SDS011;14186;53.822;10.152;2022-12-11T17:39:25;38.28;;;18.92;;
26512;SDS011;14186;53.822;10.152;2022-12-11T17:44:25;37.63;;;18.90;;
26512;SDS011;14186;53.822;10.152;2022-12-11T17:49:27;51.42;;;21.55;;
26512;SDS011;14186;53.822;10.152;2022-12-11T17:54:27;41.08;;;16.73;;
26512;SDS011;14186;53.822;10.152;2022-12-11T17:59:27;35.80;;;15.65;;
26512;SDS011;14186;53.822;10.152;2022-12-11T18:04:29;38.50;;;18.60;;
26512;SDS011;14186;53.822;10.152;2022-12-11T18:09:29;42.53;;;16.98;;
26512;SDS011;14186;53.822;10.152;2022-12-11T18:14:29;43.92;;;17.73;;
26512;SDS011;14186;53.822;10.152;2022-12-11T18:19:31;39.80;;;16.48;;
26512;SDS011;14186;53.822;10.152;2022-12-11T18:24:31;40.85;;;15.98;;
26512;SDS011;14186;53.822;10.152;2022-12-11T18:29:31;32.50;;;15.10;;
26512;SDS011;14186;53.822;10.152;2022-12-11T18:34:33;36.17;;;15.90;;
26512;SDS011;14186;53.822;10.152;2022-12-11T18:39:33;52.92;;;24.05;;
26512;SDS011;14186;53.822;10.152;2022-12-11T18:44:33;60.50;;;26.67;;
26512;SDS011;14186;53.822;10.152;2022-12-11T18:49:35;41.08;;;18.33;;
26512;SDS011;14186;53.822;10.152;2022-12-11T18:54:36;41.85;;;17.08;;
26512;SDS011;14186;53.822;10.152;2022-12-11T18:59:36;40.63;;;18.02;;
26512;SDS011;14186;53.822;10.152;2022-12-11T19:04:37;53.72;;;21.20;;
26512;SDS011;14186;53.822;10.152;2022-12-11T19:09:38;69.30;;;29.52;;
26512;SDS011;14186;53.822;10.152;2022-12-11T19:14:38;45.30;;;20.48;;
26512;SDS011;14186;53.822;10.152;2022-12-11T19:19:39;43.15;;;17.40;;
26512;SDS011;14186;53.822;10.152;2022-12-11T19:24:40;34.80;;;17.05;;
26512;SDS011;14186;53.822;10.152;2022-12-11T19:29:40;39.40;;;17.42;;
26512;SDS011;14186;53.822;10.152;2022-12-11T19:34:41;42.33;;;18.15;;
26512;SDS011;14186;53.822;10.152;2022-12-11T19:39:42;39.90;;;18.77;;
26512;SDS011;14186;53.822;10.152;2022-12-11T19:44:42;51.25;;;22.67;;
26512;SDS011;14186;53.822;10.152;2022-12-11T19:49:43;48.92;;;21.83;;
26512;SDS011;14186;53.822;10.152;2022-12-11T19:54:44;40.80;;;19.25;;
26512;SDS011;14186;53.822;10.152;2022-12-11T19:59:44;51.78;;;20.42;;
26512;SDS011;14186;53.822;10.152;2022-12-11T20:04:45;43.17;;;18.38;;
26512;SDS011;14186;53.822;10.152;2022-12-11T20:09:46;38.10;;;15.50;;
26512;SDS011;14186;53.822;10.152;2022-12-11T20:14:46;36.55;;;13.60;;
26512;SDS011;14186;53.822;10.152;2022-12-11T20:19:47;31.70;;;13.23;;
26512;SDS011;14186;53.822;10.152;2022-12-11T20:24:47;33.05;;;13.63;;
26512;SDS011;14186;53.822;10.152;2022-12-11T20:29:48;36.45;;;14.32;;
26512;SDS011;14186;53.822;10.152;2022-12-11T20:34:49;40.33;;;16.30;;
26512;SDS011;14186;53.822;10.152;2022-12-11T20:39:49;34.53;;;15.45;;
26512;SDS011;14186;53.822;10.152;2022-12-11T20:44:50;37.60;;;14.25;;
26512;SDS011;14186;53.822;10.152;2022-12-11T20:49:51;36.95;;;15.00;;
26512;SDS011;14186;53.822;10.152;2022-12-11T20:54:51;37.72;;;15.02;;
26512;SDS011;14186;53.822;10.152;2022-12-11T20:59:51;30.42;;;13.70;;
26512;SDS011;14186;53.822;10.152;2022-12-11T21:04:53;35.13;;;14.00;;
26512;SDS011;14186;53.822;10.152;2022-12-11T21:09:53;30.98;;;13.88;;
26512;SDS011;14186;53.822;10.152;2022-12-11T21:14:54;39.78;;;15.60;;
26512;SDS011;14186;53.822;10.152;2022-12-11T21:19:55;36.63;;;14.93;;
26512;SDS011;14186;53.822;10.152;2022-12-11T21:24:55;38.65;;;15.20;;
26512;SDS011;14186;53.822;10.152;2022-12-11T21:29:55;40.03;;;17.08;;
26512;SDS011;14186;53.822;10.152;2022-12-11T21:34:57;32.72;;;15.52;;
26512;SDS011;14186;53.822;10.152;2022-12-11T21:39:57;31.88;;;14.00;;
26512;SDS011;14186;53.822;10.152;2022-12-11T21:44:57;37.25;;;15.05;;
26512;SDS011;14186;53.822;10.152;2022-12-11T21:49:59;37.20;;;14.85;;
26512;SDS011;14186;53.822;10.152;2022-12-11T21:54:59;38.15;;;15.65;;
26512;SDS011;14186;53.822;10.152;2022-12-11T22:00:00;39.22;;;15.93;;
26512;SDS011;14186;53.822;10.152;2022-12-11T22:05:01;36.90;;;15.10;;
26512;SDS011;14186;53.822;10.152;2022-12-11T22:10:01;39.40;;;16.20;;
26512;SDS011;14186;53.822;10.152;2022-12-11T22:15:03;34.10;;;15.23;;
26512;SDS011;14186;53.822;10.152;2022-12-11T22:20:05;37.53;;;16.02;;
26512;SDS011;14186;53.822;10.152;2022-12-11T22:25:06;39.42;;;15.18;;
26512;SDS011;14186;53.822;10.152;2022-12-11T22:30:06;38.63;;;15.32;;
26512;SDS011;14186;53.822;10.152;2022-12-11T22:35:08;36.47;;;15.02;;
26512;SDS011;14186;53.822;10.152;2022-12-11T22:40:09;37.83;;;14.45;;
26512;SDS011;14186;53.822;10.152;2022-12-11T22:45:09;35.83;;;14.88;;
26512;SDS011;14186;53.822;10.152;2022-12-11T22:50:11;38.42;;;15.07;;
26512;SDS011;14186;53.822;10.152;2022-12-11T22:55:13;36.33;;;14.93;;
26512;SDS011;14186;53.822;10.152;2022-12-11T23:00:13;39.13;;;14.75;;
26512;SDS011;14186;53.822;10.152;2022-12-11T23:05:15;36.75;;;15.50;;
26512;SDS011;14186;53.822;10.152;2022-12-11T23:10:15;36.00;;;14.40;;
26512;SDS011;14186;53.822;10.152;2022-12-11T23:15:15;39.60;;;15.70;;
26512;SDS011;14186;53.822;10.152;2022-12-11T23:20:17;39.80;;;15.77;;
26512;SDS011;14186;53.822;10.152;2022-12-11T23:25:17;42.78;;;15.00;;
26512;SDS011;14186;53.822;10.152;2022-12-11T23:30:17;38.53;;;14.27;;
26512;SDS011;14186;53.822;10.152;2022-12-11T23:35:19;39.70;;;16.15;;
26512;SDS011;14186;53.822;10.152;2022-12-11T23:40:19;39.35;;;16.40;;
26512;SDS011;14186;53.822;10.152;2022-12-11T23:45:19;41.72;;;17.63;;
26512;SDS011;14186;53.822;10.152;2022-12-11T23:50:21;41.38;;;16.77;;
26512;SDS011;14186;53.822;10.152;2022-12-11T23:55:21;42.85;;;16.40;;
